This is the latest recevied weather packets stored in our database for station/object F4IVW-13. If no packets are shown the sender has not sent any weather packets the latest 10 day(s).
| Time | Temp. | Humidity | Pressure | Rain* | Wind** | Luminosity | Snow |
|---|---|---|---|---|---|---|---|
| 1777829966 | 17.78° C | 99% | 1011.5 hPa | 0 mm | - | 0 W/m² | - |
| 1777829012 | 18.33° C | 99% | 1011.6 hPa | 0 mm | - | 0 W/m² | - |
| 1777828698 | 18.89° C | 99% | 1011.6 hPa | 0 mm | - | 0 W/m² | - |
| 1777828385 | 19.44° C | 99% | 1011.7 hPa | 0 mm | - | 0 W/m² | - |
| 1777828065 | 19.44° C | 99% | 1011.8 hPa | 0 mm | - | 0 W/m² | - |
| 1777826466 | 21.11° C | 99% | 1011.7 hPa | 0 mm | - | 3 W/m² | - |
| 1777826149 | 21.11° C | 99% | 1011.7 hPa | 0 mm | - | 4 W/m² | - |
| 1777825835 | 20.56° C | 99% | 1011.8 hPa | 0 mm | - | 5 W/m² | - |
| 1777825201 | 19.44° C | 99% | 1011.8 hPa | 0 mm | - | 5 W/m² | - |
| 1777824892 | 19.44° C | 99% | 1011.9 hPa | 0 mm | - | 5 W/m² | - |
| 1777823921 | 18.89° C | 99% | 1011.9 hPa | 0 mm | - | 8 W/m² | - |
| 1777822648 | 18.33° C | 99% | 1012 hPa | 0.76 mm | - | 5 W/m² | - |
| 1777822018 | 18.33° C | 99% | 1012.1 hPa | 0.76 mm | - | 7 W/m² | - |
| 1777821699 | 17.78° C | 99% | 1012.1 hPa | 0.76 mm | - | 9 W/m² | - |
| 1777821377 | 17.78° C | 99% | 1012.1 hPa | 0.76 mm | - | 9 W/m² | - |
| 1777820110 | 18.33° C | 99% | 1012.5 hPa | 0.51 mm | - | 2 W/m² | - |
| 1777819784 | 18.33° C | 99% | 1012.6 hPa | 0.25 mm | - | 2 W/m² | - |
| 1777819466 | 18.89° C | 99% | 1012.7 hPa | 0.25 mm | - | 1 W/m² | - |
| 1777819147 | 19.44° C | 99% | 1012.8 hPa | 0.25 mm | - | 1 W/m² | - |
| 1777818830 | 19.44° C | 99% | 1012.9 hPa | 0 mm | - | 0 W/m² | - |
| 1777818511 | 19.44° C | 99% | 1012.8 hPa | 0 mm | - | 0 W/m² | - |
| 1777817873 | 20.56° C | 99% | 1012.7 hPa | 0 mm | - | 0 W/m² | - |
| 1777817556 | 21.11° C | 99% | 1012.7 hPa | 0 mm | - | 0 W/m² | - |
| 1777817239 | 21.67° C | 99% | 1012.8 hPa | 0 mm | - | 0 W/m² | - |
| 1777816919 | 21.67° C | 99% | 1012.8 hPa | 0 mm | - | 1 W/m² | - |
* Rain latest hour (hover to see other rain measurements)
** Current wind speed in m/s (hover to see current wind gust speed)